Time;durP1;ratioP1;P1;durP2;ratioP2;P2;SDS_P1;SDS_P2;PMS_P1;PMS_P2;Temp;Humidity;BMP_temperature;BMP_pressure;BME280_temperature;BME280_humidity;BME280_pressure;Samples;Min_cycle;Max_cycle;Signal;HPM_P1;HPM_P2
2022/09/16 00:00:31;;;;;;;5.95;1.17;;;;;;;16.77;62.34;101183.34;6136419;23;20016;-39
2022/09/16 00:02:57;;;;;;;4.72;0.98;;;;;;;16.92;62.13;101185.00;6168861;23;20008;-40
2022/09/16 00:05:23;;;;;;;4.07;1.00;;;;;;;16.89;62.20;101188.56;6166237;23;20012;-39
2022/09/16 00:07:48;;;;;;;3.85;0.90;;;;;;;16.94;61.47;101186.75;6161115;22;20399;-37
2022/09/16 00:10:14;;;;;;;5.38;1.08;;;;;;;17.00;61.64;101178.81;6163098;23;20032;-38
2022/09/16 00:12:40;;;;;;;5.30;1.00;;;;;;;16.64;63.62;101184.34;6166597;23;20008;-37
2022/09/16 00:15:06;;;;;;;5.55;1.10;;;;;;;16.80;62.53;101196.50;6164293;23;20032;-38
2022/09/16 00:17:31;;;;;;;6.47;1.10;;;;;;;16.70;62.75;101201.84;6172217;23;20015;-39
2022/09/16 00:19:57;;;;;;;7.53;1.00;;;;;;;16.30;63.13;101201.16;6158013;23;20722;-37
2022/09/16 00:22:23;;;;;;;4.28;0.80;;;;;;;16.30;63.49;101202.03;6167157;23;20395;-37
2022/09/16 00:24:49;;;;;;;6.72;0.80;;;;;;;16.26;63.06;101200.31;6160619;23;20012;-38
2022/09/16 00:27:14;;;;;;;9.43;1.00;;;;;;;16.04;63.71;101207.41;6171214;23;20013;-39
2022/09/16 00:29:40;;;;;;;6.10;1.00;;;;;;;15.98;66.09;101202.16;6173390;23;20243;-38
2022/09/16 00:32:06;;;;;;;6.68;0.90;;;;;;;16.20;64.94;101197.72;6148136;23;20388;-37
2022/09/16 00:34:31;;;;;;;2.92;0.70;;;;;;;16.29;64.23;101188.88;6166881;23;20009;-37
2022/09/16 00:36:56;;;;;;;3.45;0.70;;;;;;;16.10;64.36;101198.63;6175353;23;20016;-37
2022/09/16 00:39:22;;;;;;;3.53;0.90;;;;;;;15.99;63.60;101205.66;6173274;23;20012;-39
2022/09/16 00:41:47;;;;;;;2.85;0.80;;;;;;;16.23;63.82;101201.19;6161614;23;20009;-38
2022/09/16 00:44:52;;;;;;;3.92;0.80;;;;;;;16.24;65.34;101197.69;6172172;23;20008;-37
2022/09/16 00:47:25;;;;;;;3.08;0.80;;;;;;;16.28;66.18;101193.28;6174648;23;20013;-38
2022/09/16 00:49:53;;;;;;;5.53;0.90;;;;;;;16.25;66.02;101188.03;6155920;23;20027;-40
2022/09/16 00:52:19;;;;;;;3.25;0.98;;;;;;;16.14;66.65;101200.38;6168091;23;20009;-37
2022/09/16 00:54:45;;;;;;;4.40;1.30;;;;;;;16.18;67.03;101194.19;6157829;23;20256;-38
2022/09/16 00:57:13;;;;;;;6.57;1.02;;;;;;;15.47;70.99;101190.00;6173432;23;20009;-37
2022/09/16 00:59:45;;;;;;;4.20;0.95;;;;;;;15.67;69.24;101196.16;6156114;23;20169;-37
2022/09/16 01:02:14;;;;;;;4.80;0.90;;;;;;;15.30;69.04;101199.66;6168744;23;20517;-37
2022/09/16 01:04:45;;;;;;;5.57;0.90;;;;;;;15.32;69.58;101206.66;6168875;23;20008;-38
2022/09/16 01:07:11;;;;;;;3.08;0.70;;;;;;;15.53;69.49;101200.53;6167927;23;20021;-39
2022/09/16 01:09:37;;;;;;;4.10;0.80;;;;;;;15.69;70.02;101207.50;6175488;23;20015;-39
2022/09/16 01:12:03;;;;;;;4.60;1.02;;;;;;;15.87;69.37;101206.59;6151669;23;20109;-38
2022/09/16 01:17:16;;;;;;;;;;;;;;;16.05;69.15;101193.38;6174371;23;20034;-38
2022/09/16 01:19:59;;;;;;;2.90;0.60;;;;;;;15.74;70.99;101203.13;6166859;23;19954;-37
2022/09/16 01:22:44;;;;;;;3.73;0.70;;;;;;;15.45;72.12;101215.41;6167625;23;20008;-38
2022/09/16 01:25:31;;;;;;;4.30;0.90;;;;;;;15.57;72.16;101214.53;6161020;22;20012;-37
2022/09/16 01:28:20;;;;;;;4.82;0.98;;;;;;;15.70;71.50;101201.38;6160858;23;20039;-37
2022/09/16 01:30:52;;;;;;;3.88;0.73;;;;;;;15.84;71.19;101203.97;6162026;23;20996;-38
2022/09/16 01:33:44;;;;;;;5.35;0.93;;;;;;;15.76;71.43;101203.13;6170718;23;20074;-37
2022/09/16 01:36:38;;;;;;;4.15;0.70;;;;;;;15.90;70.58;101208.34;6166654;23;20012;-37
2022/09/16 01:39:12;;;;;;;5.55;0.77;;;;;;;15.75;70.60;101202.25;6171080;23;20009;-38
2022/09/16 01:41:56;;;;;;;4.10;0.73;;;;;;;15.83;70.01;101211.00;6164188;23;20595;-38
2022/09/16 01:44:45;;;;;;;5.78;0.75;;;;;;;15.68;70.11;101202.25;6156603;23;20008;-38
2022/09/16 01:47:21;;;;;;;4.65;0.77;;;;;;;15.71;69.98;101202.25;6162387;23;20023;-37
2022/09/16 01:49:59;;;;;;;7.38;0.85;;;;;;;15.41;70.54;101206.66;6162020;23;20359;-37
2022/09/16 01:52:34;;;;;;;4.85;0.80;;;;;;;15.34;70.19;101209.28;6167380;23;20460;-39
2022/09/16 01:55:10;;;;;;;4.55;0.80;;;;;;;15.56;70.07;101211.03;6168320;23;20020;-37
2022/09/16 01:57:57;;;;;;;4.07;0.70;;;;;;;15.39;70.98;101202.28;6167900;23;20293;-37
2022/09/16 02:00:23;;;;;;;4.18;0.80;;;;;;;15.61;70.08;101204.03;6168726;23;20012;-37
2022/09/16 02:03:00;;;;;;;8.80;0.80;;;;;;;15.58;70.41;101206.66;6161159;23;20087;-37
2022/09/16 02:05:32;;;;;;;5.18;0.90;;;;;;;15.67;70.50;101204.03;6171116;23;20021;-38
2022/09/16 02:08:09;;;;;;;3.95;0.85;;;;;;;15.79;70.43;101197.88;6159556;23;20328;-38
2022/09/16 02:10:42;;;;;;;3.72;0.80;;;;;;;15.73;71.14;101211.91;6161899;23;20043;-37
2022/09/16 02:13:18;;;;;;;2.45;0.70;;;;;;;15.89;70.62;101217.09;6158630;23;20213;-38
2022/09/16 02:15:48;;;;;;;4.45;0.90;;;;;;;15.90;70.92;101213.59;6160409;23;20009;-37
2022/09/16 02:18:18;;;;;;;3.33;0.80;;;;;;;15.92;70.68;101217.97;6173914;23;20103;-37
2022/09/16 02:20:46;;;;;;;6.50;0.80;;;;;;;15.92;70.61;101217.97;6158675;23;20012;-37
2022/09/16 02:23:17;;;;;;;6.13;0.90;;;;;;;15.89;70.46;101209.22;6167227;23;20064;-39
2022/09/16 02:25:45;;;;;;;6.57;0.95;;;;;;;15.90;70.34;101206.59;6158448;22;20914;-39
2022/09/16 02:28:16;;;;;;;5.55;0.75;;;;;;;15.85;69.62;101212.75;6165416;23;20510;-37
2022/09/16 02:30:44;;;;;;;5.07;0.88;;;;;;;15.63;69.62;101218.03;6161770;23;20139;-37
2022/09/16 02:33:12;;;;;;;9.23;0.90;;;;;;;15.59;69.58;101213.69;6152163;23;20016;-38
2022/09/16 02:35:39;;;;;;;2.65;0.68;;;;;;;15.77;68.71;101213.63;6171434;23;20012;-38
2022/09/16 02:38:15;;;;;;;2.75;0.80;;;;;;;15.75;69.21;101206.63;6159550;23;20008;-39
2022/09/16 02:40:48;;;;;;;4.13;0.70;;;;;;;15.72;68.80;101207.53;6171217;23;20017;-37
2022/09/16 02:43:14;;;;;;;4.05;0.50;;;;;;;15.37;70.47;101214.53;6170932;23;20071;-37
2022/09/16 02:45:58;;;;;;;3.38;0.70;;;;;;;15.17;69.97;101218.94;6156899;23;20016;-38
2022/09/16 02:48:39;;;;;;;7.47;0.75;;;;;;;14.80;70.33;101225.91;6171487;23;20347;-37
2022/09/16 02:51:33;;;;;;;3.83;0.73;;;;;;;15.14;68.42;101221.53;6172373;23;20013;-38
2022/09/16 02:54:07;;;;;;;5.32;0.82;;;;;;;15.21;69.06;101218.03;6152290;23;20058;-37
2022/09/16 02:56:36;;;;;;;3.40;0.65;;;;;;;15.05;68.65;101213.69;6170249;23;20013;-37
2022/09/16 02:59:05;;;;;;;4.30;0.75;;;;;;;15.12;66.72;101205.81;6171295;23;21006;-38
2022/09/16 03:01:35;;;;;;;3.78;0.77;;;;;;;15.03;67.36;101213.66;6158527;23;20103;-38
2022/09/16 03:04:03;;;;;;;4.00;0.60;;;;;;;15.16;67.61;101209.28;6161751;23;20230;-39
2022/09/16 03:06:29;;;;;;;4.70;0.60;;;;;;;15.12;67.49;101200.56;6171871;23;20090;-37
2022/09/16 03:08:59;;;;;;;5.50;0.70;;;;;;;15.16;66.48;101194.41;6170599;23;20075;-39
2022/09/16 03:11:54;;;;;;;3.25;0.60;;;;;;;15.21;66.19;101194.41;6172241;23;20008;-38
2022/09/16 03:14:28;;;;;;;5.15;0.70;;;;;;;15.32;66.25;101187.38;6151757;23;20097;-37
2022/09/16 03:17:00;;;;;;;;;;;;;;;15.26;67.05;101184.75;6171618;23;20023;-38
2022/09/16 03:19:59;;;;;;;2.03;0.50;;;;;;;15.35;67.30;101187.41;6171504;23;20303;-38
2022/09/16 03:22:50;;;;;;;1.60;0.50;;;;;;;15.26;68.45;101188.28;6163566;23;20530;-37
2022/09/16 03:25:18;;;;;;;2.80;0.60;;;;;;;15.08;69.59;101182.16;6151350;23;20012;-38
2022/09/16 03:28:00;;;;;;;5.15;0.65;;;;;;;14.88;70.76;101190.03;6163694;23;20043;-40
2022/09/16 03:30:27;;;;;;;5.05;0.95;;;;;;;14.87;71.04;101188.28;6169259;23;20024;-38
2022/09/16 03:33:18;;;;;;;5.22;0.80;;;;;;;15.01;70.04;101182.16;6169320;23;20012;-37
2022/09/16 03:35:48;;;;;;;3.20;0.70;;;;;;;15.02;70.15;101183.91;6161686;23;20646;-41
2022/09/16 03:38:15;;;;;;;2.33;0.68;;;;;;;15.12;69.93;101191.81;6163808;23;20015;-38
2022/09/16 03:40:41;;;;;;;5.28;0.98;;;;;;;14.93;71.42;101197.03;6161742;23;20478;-38
2022/09/16 03:43:15;;;;;;;5.18;0.65;;;;;;;15.12;71.01;101197.06;6166092;23;20017;-38
2022/09/16 03:45:42;;;;;;;2.83;0.65;;;;;;;15.17;71.04;101209.31;6155614;23;20059;-39
2022/09/16 03:48:09;;;;;;;8.70;0.80;;;;;;;14.90;72.08;101209.28;6165659;23;20992;-38
2022/09/16 03:50:35;;;;;;;4.50;1.00;;;;;;;15.20;71.42;101209.28;6171833;23;20013;-38
2022/09/16 03:53:01;;;;;;;5.20;0.80;;;;;;;15.18;71.03;101207.56;6158675;23;20092;-37
2022/09/16 03:55:27;;;;;;;6.70;0.80;;;;;;;15.20;69.80;101205.78;6164350;23;20004;-37
2022/09/16 03:57:53;;;;;;;5.35;1.00;;;;;;;15.43;69.87;101204.88;6165018;23;20250;-37
2022/09/16 04:00:19;;;;;;;6.30;0.93;;;;;;;15.49;69.88;101197.91;6177338;23;20490;-38
2022/09/16 04:02:44;;;;;;;4.88;0.85;;;;;;;15.62;69.41;101194.38;6162844;23;20368;-37
2022/09/16 04:05:11;;;;;;;6.80;0.98;;;;;;;15.53;70.03;101190.03;6169637;23;20091;-37
2022/09/16 04:07:39;;;;;;;4.75;0.80;;;;;;;15.61;69.91;101184.78;6171422;23;20020;-37
2022/09/16 04:10:05;;;;;;;7.32;1.02;;;;;;;15.57;69.71;101186.50;6156236;23;20012;-38
2022/09/16 04:12:31;;;;;;;2.97;0.98;;;;;;;15.28;71.40;101186.53;6166862;23;20020;-36
2022/09/16 04:14:57;;;;;;;4.13;1.02;;;;;;;15.36;70.72;101183.91;6185940;23;20502;-37
2022/09/16 04:17:23;;;;;;;6.22;0.73;;;;;;;15.09;71.73;101190.03;6165592;23;20087;-38
2022/09/16 04:19:50;;;;;;;7.75;1.33;;;;;;;15.08;71.68;101183.03;6154589;23;20043;-38
2022/09/16 04:22:15;;;;;;;4.10;0.90;;;;;;;15.26;70.65;101176.88;6163551;22;20096;-38
2022/09/16 04:24:40;;;;;;;9.48;0.90;;;;;;;15.23;70.47;101172.53;6160018;23;20115;-37
2022/09/16 04:27:06;;;;;;;3.80;1.02;;;;;;;15.20;70.23;101167.25;6160412;22;20114;-37
2022/09/16 04:29:31;;;;;;;6.97;0.90;;;;;;;15.14;70.91;101169.91;6169641;23;20009;-37
2022/09/16 04:31:57;;;;;;;4.47;0.85;;;;;;;15.06;71.67;101173.41;6156254;23;20000;-37
2022/09/16 04:34:22;;;;;;;9.55;1.10;;;;;;;14.78;72.50;101180.38;6165015;23;20048;-37
2022/09/16 04:36:48;;;;;;;4.50;1.00;;;;;;;15.10;71.29;101181.28;6161490;23;20048;-37
2022/09/16 04:39:13;;;;;;;7.05;1.45;;;;;;;14.99;72.09;101175.16;6162445;23;20086;-37
2022/09/16 04:41:38;;;;;;;4.45;1.00;;;;;;;15.11;71.48;101175.16;6170590;23;20012;-38
2022/09/16 04:44:04;;;;;;;5.72;1.08;;;;;;;15.11;71.52;101175.16;6166463;23;20156;-37
2022/09/16 04:46:31;;;;;;;7.38;1.10;;;;;;;15.16;71.35;101181.28;6169446;23;20008;-37
2022/09/16 04:48:58;;;;;;;4.60;0.90;;;;;;;15.16;71.04;101172.53;6172706;23;20070;-37
2022/09/16 04:51:28;;;;;;;5.75;1.20;;;;;;;15.14;70.81;101167.28;6161571;23;20096;-37
2022/09/16 04:53:56;;;;;;;5.93;1.00;;;;;;;15.06;70.89;101170.78;6162049;23;20009;-37
2022/09/16 04:56:27;;;;;;;6.95;1.25;;;;;;;15.10;70.94;101169.91;6161382;23;20013;-38
2022/09/16 04:58:55;;;;;;;6.22;1.00;;;;;;;15.02;71.92;101173.41;6170982;23;20383;-39
2022/09/16 05:01:23;;;;;;;4.38;0.90;;;;;;;15.17;71.72;101177.78;6165790;23;20011;-37
2022/09/16 05:03:50;;;;;;;5.00;0.90;;;;;;;14.88;70.54;101187.41;6154477;23;20027;-37
2022/09/16 05:06:21;;;;;;;5.78;0.90;;;;;;;14.99;70.53;101177.78;6169589;23;20048;-38
2022/09/16 05:08:48;;;;;;;5.00;1.00;;;;;;;15.07;69.53;101175.16;6160671;23;20012;-38
2022/09/16 05:11:17;;;;;;;7.43;1.55;;;;;;;15.22;66.74;101176.03;6168418;23;20032;-39
2022/09/16 05:13:43;;;;;;;7.45;1.08;;;;;;;15.25;66.29;101180.38;6173091;23;20459;-38
2022/09/16 05:16:19;;;;;;;7.15;1.00;;;;;;;15.45;65.84;101183.88;6163727;22;20013;-37
2022/09/16 05:18:47;;;;;;;7.15;1.10;;;;;;;15.48;66.18;101180.38;6167977;23;20028;-37
2022/09/16 05:21:15;;;;;;;4.68;0.98;;;;;;;15.28;66.72;101176.03;6160509;23;20009;-37
2022/09/16 05:23:42;;;;;;;2.97;0.70;;;;;;;15.41;66.29;101176.88;6164097;23;20016;-37
2022/09/16 05:26:15;;;;;;;5.82;0.90;;;;;;;15.46;66.23;101185.63;6153869;23;20013;-36
2022/09/16 05:28:41;;;;;;;4.05;0.90;;;;;;;15.43;66.43;101188.25;6170772;23;20024;-37
2022/09/16 05:31:25;;;;;;;8.88;1.00;;;;;;;15.50;66.53;101182.09;6164964;22;20483;-37
2022/09/16 05:33:59;;;;;;;6.43;1.08;;;;;;;15.43;66.21;101191.75;6155049;23;20008;-37
2022/09/16 05:36:27;;;;;;;4.40;1.05;;;;;;;15.36;65.56;101192.66;6170006;23;20063;-37
2022/09/16 05:38:52;;;;;;;6.28;0.95;;;;;;;15.53;65.24;101197.91;6169031;23;20012;-37
2022/09/16 05:41:17;;;;;;;6.18;0.93;;;;;;;15.70;65.16;101206.63;6165172;23;20892;-37
2022/09/16 05:43:43;;;;;;;7.60;1.00;;;;;;;15.89;64.15;101206.59;6167788;23;20012;-37
2022/09/16 05:46:16;;;;;;;7.28;1.15;;;;;;;16.32;64.72;101199.41;6159595;23;20505;-37
2022/09/16 05:48:42;;;;;;;5.32;0.80;;;;;;;16.52;64.44;101195.78;6168218;23;20009;-37
2022/09/16 05:51:07;;;;;;;5.25;0.80;;;;;;;16.75;63.77;101203.56;6162175;23;20028;-37
2022/09/16 05:53:33;;;;;;;6.00;0.90;;;;;;;16.26;64.28;101202.06;6164190;23;20008;-37
2022/09/16 05:56:04;;;;;;;5.18;0.70;;;;;;;15.69;63.84;101214.53;6157816;23;20027;-37
2022/09/16 05:58:31;;;;;;;7.72;0.90;;;;;;;15.33;63.84;101234.69;6166058;23;20344;-37
2022/09/16 06:01:00;;;;;;;5.53;0.88;;;;;;;15.02;64.94;101239.03;6172075;23;20035;-39
2022/09/16 06:03:27;;;;;;;3.72;0.90;;;;;;;15.00;63.26;101226.81;6167923;23;20107;-37
2022/09/16 06:05:59;;;;;;;4.97;0.60;;;;;;;15.00;61.75;101226.81;6159954;23;20090;-37
2022/09/16 06:08:25;;;;;;;1.70;0.63;;;;;;;14.63;62.06;101231.13;6167221;23;20015;-36
2022/09/16 06:10:50;;;;;;;6.25;0.90;;;;;;;14.86;62.25;101223.28;6165948;23;20028;-37
2022/09/16 06:13:18;;;;;;;1.83;0.52;;;;;;;14.80;62.17;101220.66;6174226;23;20848;-37
2022/09/16 06:15:52;;;;;;;5.95;0.70;;;;;;;14.66;63.27;101223.25;6157684;23;20017;-36
2022/09/16 06:18:18;;;;;;;3.35;0.68;;;;;;;14.51;63.42;101217.97;6175308;23;20008;-36
2022/09/16 06:20:45;;;;;;;6.13;0.68;;;;;;;14.70;65.68;101218.91;6159659;23;20518;-37
2022/09/16 06:23:10;;;;;;;3.83;0.68;;;;;;;14.90;63.96;101215.41;6168688;23;20225;-37
2022/09/16 06:25:36;;;;;;;6.72;0.88;;;;;;;14.98;64.30;101218.03;6169682;23;20008;-37
2022/09/16 06:28:02;;;;;;;4.15;0.73;;;;;;;15.08;64.55;101219.78;6156774;23;20373;-36
2022/09/16 06:30:28;;;;;;;4.15;0.90;;;;;;;15.21;64.97;101215.41;6171124;22;20017;-38
2022/09/16 06:32:53;;;;;;;7.35;0.90;;;;;;;15.18;66.43;101216.31;6166308;23;20087;-36
2022/09/16 06:35:18;;;;;;;5.20;0.75;;;;;;;15.44;66.29;101217.16;6166107;23;20023;-37
2022/09/16 06:37:44;;;;;;;5.18;0.75;;;;;;;15.62;66.25;101224.16;6164946;23;20107;-37
2022/09/16 06:40:10;;;;;;;5.15;0.73;;;;;;;16.38;66.92;101220.44;6173504;23;20534;-37
2022/09/16 06:42:35;;;;;;;6.43;0.90;;;;;;;17.11;61.47;101215.59;6165533;23;20542;-36
2022/09/16 06:45:03;;;;;;;5.07;0.90;;;;;;;17.42;60.96;101216.22;6165896;23;20027;-37
2022/09/16 06:47:28;;;;;;;7.07;1.05;;;;;;;17.81;57.82;101213.19;6161973;23;20609;-36
2022/09/16 06:49:54;;;;;;;5.63;0.90;;;;;;;18.33;58.29;101209.06;6157426;23;20017;-36
2022/09/16 06:52:19;;;;;;;5.55;1.00;;;;;;;18.66;55.96;101199.84;6167122;23;20096;-38
2022/09/16 06:54:46;;;;;;;3.40;0.82;;;;;;;19.23;54.19;101206.84;6166949;23;20452;-36
2022/09/16 06:57:11;;;;;;;5.30;0.88;;;;;;;20.04;52.07;101206.25;6164253;22;20480;-36
2022/09/16 06:59:37;;;;;;;4.97;1.00;;;;;;;21.20;48.97;101193.06;6164373;23;20016;-37
2022/09/16 07:02:03;;;;;;;8.13;1.15;;;;;;;21.58;46.93;101185.00;6157293;23;20004;-37
2022/09/16 07:04:28;;;;;;;5.75;1.10;;;;;;;21.60;46.61;101187.59;6169911;23;20148;-36
2022/09/16 07:06:56;;;;;;;4.68;0.82;;;;;;;21.90;45.47;101184.09;6176709;23;20092;-36
2022/09/16 07:09:22;;;;;;;5.70;1.30;;;;;;;22.76;45.33;101180.66;6161128;23;20124;-37
2022/09/16 07:11:48;;;;;;;3.45;0.80;;;;;;;21.95;44.53;101189.28;6169605;23;20468;-37
2022/09/16 07:14:13;;;;;;;6.55;1.00;;;;;;;22.69;43.84;101191.53;6157975;23;20495;-36
2022/09/16 07:16:38;;;;;;;3.88;0.80;;;;;;;21.95;44.92;101198.16;6167699;23;20004;-38
2022/09/16 07:19:04;;;;;;;4.55;0.88;;;;;;;20.80;46.03;101204.59;6173363;23;20791;-37
2022/09/16 07:21:30;;;;;;;3.45;0.70;;;;;;;20.37;48.04;101202.03;6158739;23;20098;-37
2022/09/16 07:23:57;;;;;;;4.07;0.80;;;;;;;19.23;50.37;101201.56;6164352;23;20135;-36
2022/09/16 07:26:25;;;;;;;3.72;0.77;;;;;;;18.76;51.42;101207.59;6163914;22;20440;-36
2022/09/16 07:28:54;;;;;;;4.43;0.95;;;;;;;17.92;55.04;101218.38;6174999;23;20511;-38
2022/09/16 07:31:25;;;;;;;7.00;1.17;;;;;;;17.25;55.77;101233.94;6166313;23;20518;-37
2022/09/16 07:33:55;;;;;;;3.90;0.60;;;;;;;16.85;57.62;101236.84;6150953;23;20103;-40
2022/09/16 07:36:23;;;;;;;7.57;0.90;;;;;;;16.84;57.95;101240.34;6174418;23;20546;-38
2022/09/16 07:38:50;;;;;;;3.22;0.80;;;;;;;16.04;61.86;101238.97;6159491;22;20021;-36
2022/09/16 07:41:19;;;;;;;4.78;0.75;;;;;;;15.99;61.67;101222.31;6170221;23;20062;-36
2022/09/16 07:43:45;;;;;;;4.10;0.90;;;;;;;16.28;62.09;101227.50;6159449;23;20024;-37
2022/09/16 07:46:12;;;;;;;3.67;0.88;;;;;;;16.15;63.22;101223.16;6157971;23;20098;-38
2022/09/16 07:48:38;;;;;;;4.30;0.90;;;;;;;16.29;63.93;101226.59;6173892;23;20032;-37
2022/09/16 07:51:10;;;;;;;4.63;0.70;;;;;;;16.31;64.89;101223.97;6142499;23;20079;-38
2022/09/16 07:53:37;;;;;;;6.43;1.10;;;;;;;16.30;65.72;101225.72;6164914;23;20493;-37
2022/09/16 07:56:05;;;;;;;3.92;0.90;;;;;;;16.53;66.17;101230.84;6151142;23;20279;-38
2022/09/16 07:58:31;;;;;;;5.07;0.88;;;;;;;16.68;66.16;101237.84;6156603;23;20976;-38
2022/09/16 08:00:57;;;;;;;5.75;1.10;;;;;;;16.73;64.04;101257.13;6171636;22;20008;-37
2022/09/16 08:03:23;;;;;;;6.70;1.10;;;;;;;16.50;62.39;101237.03;6166548;22;20359;-36
2022/09/16 08:05:48;;;;;;;6.78;0.93;;;;;;;16.71;62.97;101259.75;6150314;23;20446;-37
2022/09/16 08:08:13;;;;;;;12.38;1.85;;;;;;;16.72;61.42;101268.53;6168833;23;20070;-38
2022/09/16 08:10:39;;;;;;;5.63;1.10;;;;;;;16.94;61.00;101267.53;6161528;23;20067;-37
2022/09/16 08:13:06;;;;;;;6.90;1.00;;;;;;;16.80;61.00;101269.38;6175355;23;20004;-38
2022/09/16 08:15:32;;;;;;;7.05;1.10;;;;;;;16.85;62.40;101278.09;6135818;23;20938;-38
2022/09/16 08:17:57;;;;;;;7.28;1.10;;;;;;;16.63;61.85;101272.09;6158653;23;20016;-38
2022/09/16 08:20:24;;;;;;;6.65;0.90;;;;;;;16.79;61.93;101283.41;6164354;23;20085;-37
2022/09/16 08:22:49;;;;;;;4.45;0.80;;;;;;;16.66;62.22;101284.34;6167233;23;20013;-37
2022/09/16 08:25:15;;;;;;;4.50;0.80;;;;;;;16.66;62.31;101268.56;6162532;23;20621;-40
2022/09/16 08:27:45;;;;;;;4.88;0.80;;;;;;;16.30;62.97;101274.81;6166011;23;20066;-40
2022/09/16 08:30:11;;;;;;;4.82;0.80;;;;;;;16.08;63.51;101267.03;6166085;23;20086;-38
2022/09/16 08:32:36;;;;;;;4.45;0.70;;;;;;;16.29;63.85;101276.59;6162396;23;20008;-39
2022/09/16 08:35:02;;;;;;;4.15;0.80;;;;;;;16.44;63.88;101278.28;6163223;22;20055;-38
2022/09/16 08:37:28;;;;;;;6.35;1.10;;;;;;;16.43;64.22;101284.44;6158556;23;20037;-38
2022/09/16 08:39:53;;;;;;;5.60;0.90;;;;;;;16.54;64.42;101301.03;6166950;23;20009;-38
2022/09/16 08:42:27;;;;;;;5.60;0.98;;;;;;;16.63;62.11;101309.81;6163389;23;20095;-40
2022/09/16 08:45:21;;;;;;;6.18;1.00;;;;;;;15.55;66.47;101334.56;6163226;23;20013;-38
2022/09/16 08:48:07;;;;;;;5.07;1.00;;;;;;;14.87;66.58;101323.03;6160590;23;20015;-38
2022/09/16 08:50:40;;;;;;;3.38;0.63;;;;;;;15.40;65.55;101310.00;6169126;23;20031;-37
2022/09/16 08:53:13;;;;;;;4.60;0.80;;;;;;;15.33;65.90;101297.72;6170040;23;20047;-37
2022/09/16 08:55:45;;;;;;;5.00;0.90;;;;;;;15.15;66.70;101299.47;6161121;23;20864;-41
2022/09/16 08:58:23;;;;;;;5.55;0.80;;;;;;;15.12;67.99;101310.84;6164303;23;20013;-37
2022/09/16 09:00:55;;;;;;;4.90;0.88;;;;;;;15.47;68.21;101316.13;6159836;23;20083;-38
2022/09/16 09:03:29;;;;;;;6.05;0.90;;;;;;;15.70;69.32;101311.78;6167500;23;20067;-38
2022/09/16 09:05:56;;;;;;;3.42;0.73;;;;;;;16.04;67.93;101303.88;6153680;23;20008;-39
2022/09/16 09:08:28;;;;;;;7.15;0.80;;;;;;;16.36;68.54;101314.28;6165545;23;20087;-38
2022/09/16 09:11:00;;;;;;;8.13;0.77;;;;;;;16.53;66.72;101322.97;6164423;23;20019;-38
2022/09/16 09:13:38;;;;;;;4.72;0.80;;;;;;;17.00;64.44;101318.41;6163189;23;20464;-38
2022/09/16 09:16:26;;;;;;;5.50;0.68;;;;;;;16.78;64.28;101314.13;6157940;23;20330;-38
2022/09/16 09:19:12;;;;;;;5.95;0.77;;;;;;;16.58;63.75;101314.22;6165473;22;20008;-38
2022/09/16 09:21:44;;;;;;;4.68;0.70;;;;;;;16.39;64.58;101303.75;6165382;23;20005;-39
2022/09/16 09:24:35;;;;;;;5.88;0.90;;;;;;;16.06;66.81;101312.59;6157519;23;22463;-38
2022/09/16 09:27:46;;;;;;;6.88;1.02;;;;;;;16.24;66.46;101307.28;6165141;23;20582;-41
2022/09/16 09:30:24;;;;;;;6.38;0.77;;;;;;;16.05;69.19;101316.97;6070081;23;20041;-39
2022/09/16 09:32:52;;;;;;;8.70;1.17;;;;;;;15.67;71.71;101324.06;6149212;23;20036;-39
2022/09/16 09:35:46;;;;;;;4.07;0.90;;;;;;;15.74;70.27;101323.16;6161060;23;20107;-41
2022/09/16 09:38:49;;;;;;;4.95;1.10;;;;;;;15.68;71.17;101329.28;6166603;23;20016;-38
2022/09/16 09:41:32;;;;;;;4.97;0.90;;;;;;;16.36;69.94;101332.69;6164898;23;20095;-38
2022/09/16 09:44:05;;;;;;;4.50;0.70;;;;;;;16.43;67.99;101324.78;6158071;23;20016;-38
2022/09/16 09:46:41;;;;;;;4.75;0.90;;;;;;;16.75;67.53;101327.31;6170603;23;20051;-39
2022/09/16 09:49:31;;;;;;;5.55;1.00;;;;;;;17.11;68.15;101320.97;6171156;23;20066;-40
2022/09/16 09:52:12;;;;;;;7.50;0.90;;;;;;;16.89;67.69;101309.72;6158148;23;20016;-39
2022/09/16 09:54:40;;;;;;;5.93;0.80;;;;;;;17.17;68.02;101306.88;6163258;22;20015;-40
2022/09/16 09:57:36;;;;;;;5.45;1.17;;;;;;;17.07;67.51;101315.75;6165174;23;20459;-39
2022/09/16 10:00:13;;;;;;;5.07;1.00;;;;;;;17.10;65.77;101320.97;6152847;23;20650;-38
2022/09/16 10:02:40;;;;;;;7.53;1.55;;;;;;;16.97;66.65;101330.72;6164839;23;20023;-38
2022/09/16 10:05:19;;;;;;;5.65;0.98;;;;;;;16.52;68.22;101316.88;6169980;23;20054;-38
2022/09/16 10:07:44;;;;;;;3.72;0.70;;;;;;;16.55;65.11;101310.69;6159805;23;20016;-38
2022/09/16 10:10:16;;;;;;;4.35;0.77;;;;;;;16.58;65.45;101316.84;6165303;23;20009;-38
2022/09/16 10:12:41;;;;;;;4.38;0.73;;;;;;;16.64;64.85;101313.34;6168165;23;20695;-38
2022/09/16 10:15:20;;;;;;;4.35;0.80;;;;;;;16.47;65.78;101315.09;6187524;23;20004;-38
2022/09/16 10:17:50;;;;;;;2.72;0.70;;;;;;;16.23;67.06;101302.91;6148231;23;20024;-38
2022/09/16 10:20:35;;;;;;;5.10;0.70;;;;;;;16.32;67.09;101307.28;6169354;23;20013;-38
2022/09/16 10:23:09;;;;;;;5.10;0.60;;;;;;;16.38;67.33;101310.78;6149951;23;20008;-37
2022/09/16 10:25:36;;;;;;;4.15;0.80;;;;;;;16.62;66.60;101300.19;6165378;23;20016;-37
2022/09/16 10:28:18;;;;;;;4.18;1.10;;;;;;;16.79;64.30;101307.09;6165195;23;20298;-37
2022/09/16 10:30:48;;;;;;;7.18;1.10;;;;;;;16.79;65.00;101305.34;6157164;23;20055;-38
2022/09/16 10:33:24;;;;;;;4.43;0.88;;;;;;;16.79;65.21;101307.09;6166033;23;20035;-37
2022/09/16 10:35:55;;;;;;;4.72;0.88;;;;;;;17.00;65.76;101299.09;6144503;23;20039;-36
2022/09/16 10:38:23;;;;;;;6.00;0.90;;;;;;;16.75;64.16;101298.38;6169605;23;20032;-37
2022/09/16 10:41:01;;;;;;;6.55;1.00;;;;;;;17.01;65.37;101298.22;6168812;22;20092;-38
2022/09/16 10:43:30;;;;;;;4.93;0.70;;;;;;;17.24;62.96;101290.16;6160349;23;20946;-36
2022/09/16 10:45:56;;;;;;;5.22;0.77;;;;;;;17.19;62.07;101298.09;6151764;23;20016;-37
2022/09/16 10:48:26;;;;;;;3.80;0.70;;;;;;;17.34;62.18;101294.47;6156491;23;20012;-38
2022/09/16 10:50:59;;;;;;;8.27;1.00;;;;;;;17.47;60.20;101300.50;6165075;23;20111;-36
2022/09/16 10:53:26;;;;;;;2.85;0.60;;;;;;;17.44;61.08;101302.28;6172186;23;20039;-37
2022/09/16 10:56:02;;;;;;;4.13;0.70;;;;;;;17.25;58.47;101300.69;6155831;23;20112;-38
2022/09/16 10:58:28;;;;;;;1.95;0.70;;;;;;;17.59;57.21;101298.66;6169454;23;20028;-38
2022/09/16 11:01:12;;;;;;;3.92;0.90;;;;;;;17.52;58.62;101296.06;6159516;23;20043;-38
2022/09/16 11:04:10;;;;;;;4.28;0.80;;;;;;;17.29;55.14;101293.63;6161346;23;20008;-37
2022/09/16 11:07:13;;;;;;;7.57;1.10;;;;;;;17.58;57.74;101301.28;6177605;23;20631;-42
2022/09/16 11:09:50;;;;;;;6.32;1.00;;;;;;;17.97;57.94;101302.72;6169081;23;20407;-37
2022/09/16 11:12:21;;;;;;;6.22;1.02;;;;;;;18.50;55.46;101310.91;6168320;23;20055;-38
2022/09/16 11:14:47;;;;;;;5.18;0.98;;;;;;;18.52;52.58;101305.63;6159221;23;20456;-38
2022/09/16 11:17:28;;;;;;;5.03;1.10;;;;;;;18.28;52.68;101312.06;6171416;23;20004;-36
2022/09/16 11:20:15;;;;;;;5.80;1.10;;;;;;;18.18;49.25;101299.84;6155411;23;20020;-38
2022/09/16 11:22:52;;;;;;;5.03;0.80;;;;;;;18.57;51.17;101323.19;6159739;23;20786;-37
2022/09/16 11:25:20;;;;;;;7.30;1.10;;;;;;;18.14;54.49;101324.53;6167638;23;20432;-37
2022/09/16 11:27:55;;;;;;;5.68;1.20;;;;;;;17.53;55.18;101319.78;6155954;23;20055;-38
2022/09/16 11:30:31;;;;;;;6.63;1.10;;;;;;;17.64;56.67;101328.50;6171596;23;20104;-37
2022/09/16 11:33:24;;;;;;;11.02;1.02;;;;;;;18.12;57.45;101332.44;6160760;23;20016;-37
2022/09/16 11:36:13;;;;;;;8.60;1.10;;;;;;;18.06;58.48;101340.44;6159967;23;20028;-37
2022/09/16 11:39:15;;;;;;;12.18;1.50;;;;;;;17.32;58.63;101344.53;6163419;23;20036;-37
2022/09/16 11:42:03;;;;;;;6.05;1.20;;;;;;;17.72;58.00;101336.38;6163308;23;20020;-36
2022/09/16 11:44:43;;;;;;;9.95;1.02;;;;;;;17.92;56.32;101334.44;6166816;22;20023;-37
2022/09/16 11:47:24;;;;;;;8.68;1.30;;;;;;;17.95;56.95;101336.16;6166194;23;20091;-38
2022/09/16 11:50:17;;;;;;;7.90;1.17;;;;;;;18.55;56.94;101332.88;6157985;23;20082;-37